createdAt,value
2023-04-14T00:02:24.889Z,82.20
2023-04-14T00:04:55.442Z,79.50
2023-04-14T00:07:22.899Z,82.20
2023-04-14T00:09:50.308Z,79.60
2023-04-14T00:12:17.639Z,80.00
2023-04-14T00:14:45.084Z,80.00
2023-04-14T00:17:12.751Z,80.60
2023-04-14T00:19:40.231Z,79.70
2023-04-14T00:22:07.583Z,80.70
2023-04-14T00:24:40.813Z,80.50
2023-04-14T00:27:08.159Z,81.00
2023-04-14T00:29:35.898Z,81.10
2023-04-14T00:32:03.482Z,80.50
2023-04-14T00:34:33.265Z,81.50
2023-04-14T00:37:00.750Z,80.80
2023-04-14T00:39:30.702Z,80.80
2023-04-14T00:41:58.086Z,80.50
2023-04-14T00:44:25.484Z,81.50
2023-04-14T00:46:53.002Z,80.90
2023-04-14T00:49:20.931Z,81.10
2023-04-14T00:51:49.014Z,81.00
2023-04-14T00:54:18.994Z,81.00
2023-04-14T00:56:54.449Z,82.50
2023-04-14T00:59:22.284Z,84.20
2023-04-14T01:01:49.761Z,82.30
2023-04-14T01:04:20.854Z,81.40
2023-04-14T01:06:48.564Z,83.10
2023-04-14T01:09:16.357Z,81.60
2023-04-14T01:11:57.523Z,82.40
2023-04-14T01:15:00.597Z,83.20
2023-04-14T01:17:50.088Z,83.70
2023-04-14T01:20:34.481Z,85.20
2023-04-14T01:23:08.092Z,84.40
2023-04-14T01:26:12.733Z,84.40
2023-04-14T01:29:12.103Z,84.30
2023-04-14T01:31:50.541Z,85.20
2023-04-14T01:34:33.688Z,84.00
2023-04-14T01:37:16.795Z,84.60
2023-04-14T01:39:52.746Z,84.00
2023-04-14T01:42:29.600Z,84.60
2023-04-14T01:45:05.164Z,84.60
2023-04-14T01:47:33.596Z,85.30
2023-04-14T01:50:03.236Z,82.80
2023-04-14T01:52:32.497Z,83.70
2023-04-14T01:55:05.674Z,83.40
2023-04-14T01:57:36.224Z,84.60
2023-04-14T02:00:05.545Z,84.20
2023-04-14T02:02:44.391Z,83.60
2023-04-14T02:05:13.710Z,84.00
2023-04-14T02:07:42.793Z,84.80
2023-04-14T02:10:11.381Z,84.60
2023-04-14T02:12:44.649Z,88.70
2023-04-14T02:15:17.280Z,84.10
2023-04-14T02:17:48.442Z,85.40
2023-04-14T02:20:17.250Z,85.70
2023-04-14T02:22:44.650Z,85.20
2023-04-14T02:25:12.057Z,84.00
2023-04-14T02:27:42.242Z,84.20
2023-04-14T02:30:16.678Z,83.40
2023-04-14T02:32:49.540Z,86.20
2023-04-14T02:35:27.434Z,85.90
2023-04-14T02:38:04.019Z,86.60
2023-04-14T02:40:35.031Z,86.30
2023-04-14T02:43:12.528Z,85.50
2023-04-14T02:45:42.441Z,86.30
2023-04-14T02:48:13.937Z,86.20
2023-04-14T02:50:48.855Z,86.10
2023-04-14T02:53:22.297Z,85.40
2023-04-14T02:55:52.188Z,87.30
2023-04-14T02:58:21.499Z,86.10
2023-04-14T03:00:51.923Z,86.40
2023-04-14T03:03:19.878Z,86.20
2023-04-14T03:05:48.657Z,84.70
2023-04-14T03:08:17.131Z,85.80
2023-04-14T03:10:48.724Z,86.20
2023-04-14T03:13:19.301Z,85.80
2023-04-14T03:15:48.909Z,85.60
2023-04-14T03:18:21.069Z,86.30
2023-04-14T03:20:51.792Z,85.80
2023-04-14T03:23:21.894Z,86.30
2023-04-14T03:25:55.790Z,85.80
2023-04-14T03:28:30.446Z,86.10
2023-04-14T03:31:03.827Z,86.90
2023-04-14T03:33:47.044Z,87.20
2023-04-14T03:36:17.998Z,87.30
2023-04-14T03:38:49.384Z,87.70
2023-04-14T03:41:19.683Z,86.90
2023-04-14T03:43:48.316Z,88.60
2023-04-14T03:46:17.481Z,87.20
2023-04-14T03:48:47.204Z,86.40
2023-04-14T03:51:17.344Z,87.90
2023-04-14T03:53:46.796Z,87.90
2023-04-14T03:56:17.368Z,87.60
2023-04-14T03:58:51.449Z,86.60
2023-04-14T04:01:20.456Z,88.20
2023-04-14T04:03:48.912Z,87.40
2023-04-14T04:06:17.965Z,87.80
2023-04-14T04:08:48.207Z,86.90
2023-04-14T04:11:18.848Z,88.40
2023-04-14T04:13:49.245Z,87.50
2023-04-14T04:16:17.860Z,88.20
2023-04-14T04:18:49.067Z,88.20
2023-04-14T04:21:21.440Z,88.60
2023-04-14T04:23:53.333Z,88.70
2023-04-14T04:26:23.455Z,89.80
2023-04-14T04:28:52.557Z,87.30
2023-04-14T04:31:22.179Z,88.60
2023-04-14T04:33:50.810Z,87.90
2023-04-14T04:36:19.200Z,87.60
2023-04-14T04:38:46.801Z,88.40
2023-04-14T04:41:24.016Z,87.40
2023-04-14T04:43:52.342Z,89.70
2023-04-14T04:46:54.937Z,87.90
2023-04-14T04:49:28.389Z,89.80
2023-04-14T04:52:01.226Z,88.30
2023-04-14T04:54:28.972Z,87.90
2023-04-14T04:56:57.616Z,88.10
2023-04-14T04:59:25.508Z,87.90
2023-04-14T05:01:53.026Z,88.20
2023-04-14T05:04:20.525Z,88.10
2023-04-14T05:06:48.086Z,88.10
2023-04-14T05:09:15.493Z,87.90
2023-04-14T05:11:42.804Z,88.10
2023-04-14T05:14:10.211Z,88.70
2023-04-14T05:16:37.608Z,88.30
2023-04-14T05:19:04.968Z,89.10
2023-04-14T05:21:32.898Z,88.90
2023-04-14T05:24:00.553Z,88.40
2023-04-14T05:26:48.773Z,88.50
2023-04-14T05:29:15.268Z,89.60
2023-04-14T05:31:42.584Z,88.70
2023-04-14T05:34:09.980Z,88.50
2023-04-14T05:36:37.250Z,88.80
2023-04-14T05:39:04.639Z,90.00
2023-04-14T05:41:31.981Z,89.90
2023-04-14T05:43:59.625Z,88.70
2023-04-14T05:46:27.132Z,89.70
2023-04-14T05:48:54.571Z,89.70
2023-04-14T05:51:21.871Z,88.50
2023-04-14T05:53:49.206Z,89.40
2023-04-14T05:56:16.587Z,89.80
2023-04-14T05:58:43.948Z,89.30
2023-04-14T06:01:11.369Z,89.00
2023-04-14T06:03:40.566Z,89.00
2023-04-14T06:06:08.799Z,89.00
2023-04-14T06:08:36.105Z,89.10
2023-04-14T06:11:03.954Z,89.80
2023-04-14T06:13:33.043Z,89.00
2023-04-14T06:16:02.299Z,88.70
2023-04-14T06:18:29.750Z,88.80
2023-04-14T06:20:57.111Z,88.70
2023-04-14T06:23:26.687Z,89.20
2023-04-14T06:25:55.048Z,88.30
2023-04-14T06:28:24.018Z,87.40
2023-04-14T06:30:51.710Z,88.60
2023-04-14T06:33:19.199Z,88.90
2023-04-14T06:35:46.632Z,88.40
2023-04-14T06:38:13.956Z,89.50
2023-04-14T06:40:41.312Z,88.50
2023-04-14T06:43:11.065Z,88.60
2023-04-14T06:45:39.093Z,88.80
2023-04-14T06:48:07.896Z,88.20
2023-04-14T06:50:35.628Z,88.40
2023-04-14T06:53:03.130Z,88.50
2023-04-14T06:55:30.477Z,88.50
2023-04-14T06:57:57.802Z,88.10
2023-04-14T07:00:25.465Z,87.80
2023-04-14T07:02:52.986Z,87.70
2023-04-14T07:05:20.496Z,87.80
2023-04-14T07:07:47.836Z,87.60
2023-04-14T07:10:15.557Z,87.40
2023-04-14T07:12:42.941Z,87.50
2023-04-14T07:15:10.761Z,87.30
2023-04-14T07:17:38.152Z,87.30
2023-04-14T07:20:06.182Z,87.40
2023-04-14T07:22:34.434Z,87.30
2023-04-14T07:25:01.821Z,87.60
2023-04-14T07:27:29.161Z,87.60
2023-04-14T07:29:56.749Z,86.80
2023-04-14T07:32:24.336Z,87.30
2023-04-14T07:34:52.356Z,87.90
2023-04-14T07:37:20.774Z,86.30
2023-04-14T07:39:48.184Z,86.30
2023-04-14T07:42:15.531Z,86.60
2023-04-14T07:44:42.937Z,86.70
2023-04-14T07:47:10.292Z,86.00
2023-04-14T07:49:37.643Z,85.70
2023-04-14T07:52:05.004Z,85.50
2023-04-14T07:54:32.369Z,85.50
2023-04-14T07:56:59.719Z,85.40
2023-04-14T07:59:27.069Z,85.00
2023-04-14T08:01:54.600Z,85.00
2023-04-14T08:04:22.151Z,84.60
2023-04-14T08:06:49.611Z,84.80
2023-04-14T08:09:17.314Z,84.40
2023-04-14T08:11:44.684Z,84.70
2023-04-14T08:14:12.093Z,84.20
2023-04-14T08:16:39.561Z,84.20
2023-04-14T08:19:07.136Z,84.10
2023-04-14T08:21:34.660Z,83.90
2023-04-14T08:24:01.974Z,83.90
2023-04-14T08:26:29.291Z,84.00
2023-04-14T08:28:56.625Z,84.30
2023-04-14T08:31:25.669Z,83.40
2023-04-14T08:33:53.403Z,83.60
2023-04-14T08:36:21.062Z,83.30
2023-04-14T08:38:48.531Z,82.90
2023-04-14T08:41:19.597Z,82.30
2023-04-14T08:43:46.994Z,83.00
2023-04-14T08:46:16.225Z,81.80
2023-04-14T08:48:47.581Z,81.90
2023-04-14T08:51:36.021Z,82.00
2023-04-14T08:54:08.258Z,82.40
2023-04-14T08:56:38.348Z,81.50
2023-04-14T08:59:10.515Z,80.70
2023-04-14T09:01:39.574Z,80.70
2023-04-14T09:04:08.050Z,80.20
2023-04-14T09:06:36.416Z,78.60
2023-04-14T09:09:08.801Z,77.70
2023-04-14T09:11:37.658Z,77.50
2023-04-14T09:14:05.044Z,77.10
2023-04-14T09:16:33.410Z,77.00
2023-04-14T09:19:06.479Z,76.70
2023-04-14T09:21:53.406Z,76.00
2023-04-14T09:24:31.789Z,75.80
2023-04-14T09:27:05.390Z,75.70
2023-04-14T09:29:33.572Z,75.90
2023-04-14T09:32:01.078Z,74.40
2023-04-14T09:34:28.546Z,75.20
2023-04-14T09:37:09.824Z,75.10
2023-04-14T09:39:51.211Z,75.60
2023-04-14T09:42:19.263Z,75.40
2023-04-14T09:44:54.441Z,75.10
2023-04-14T09:47:22.852Z,75.10
2023-04-14T09:50:03.295Z,74.20
2023-04-14T09:52:42.113Z,73.90
2023-04-14T09:55:14.449Z,73.30
2023-04-14T09:57:43.807Z,72.90
2023-04-14T10:00:22.509Z,72.50
2023-04-14T10:02:56.238Z,72.00
2023-04-14T10:05:33.982Z,71.00
2023-04-14T10:08:03.828Z,71.30
2023-04-14T10:10:31.719Z,71.20
2023-04-14T10:13:00.774Z,70.50
2023-04-14T10:15:28.295Z,69.60
2023-04-14T10:17:56.483Z,69.20
2023-04-14T10:20:25.001Z,68.70
2023-04-14T10:22:53.623Z,67.90
2023-04-14T10:25:21.388Z,67.90
2023-04-14T10:27:49.672Z,68.80
2023-04-14T10:30:17.117Z,68.50
2023-04-14T10:32:47.281Z,68.10
2023-04-14T10:35:18.493Z,67.20
2023-04-14T10:37:52.729Z,67.10
2023-04-14T10:40:21.620Z,67.30
2023-04-14T10:42:57.278Z,67.50
2023-04-14T10:45:24.745Z,68.10
2023-04-14T10:47:52.620Z,67.80
2023-04-14T10:50:25.134Z,67.70
2023-04-14T10:52:56.469Z,67.90
2023-04-14T10:55:25.839Z,67.50
2023-04-14T10:58:03.089Z,66.50
2023-04-14T11:00:32.075Z,65.90
2023-04-14T11:03:13.157Z,65.50
2023-04-14T11:05:44.854Z,65.00
2023-04-14T11:08:17.543Z,65.20
2023-04-14T11:10:51.240Z,64.30
2023-04-14T11:13:19.208Z,64.10
2023-04-14T11:15:48.580Z,64.00
2023-04-14T11:18:37.299Z,64.40
2023-04-14T11:21:16.435Z,64.20
2023-04-14T11:23:45.148Z,63.40
2023-04-14T11:26:16.947Z,63.40
2023-04-14T11:28:46.159Z,63.30
2023-04-14T11:31:17.166Z,64.60
2023-04-14T11:33:45.002Z,63.40
2023-04-14T11:36:15.666Z,62.70
2023-04-14T11:38:43.337Z,62.50
2023-04-14T11:41:14.236Z,62.60
2023-04-14T11:43:46.577Z,62.40
2023-04-14T11:46:16.012Z,62.30
2023-04-14T11:48:43.894Z,61.40
2023-04-14T11:51:11.356Z,60.90
2023-04-14T11:53:40.626Z,61.00
2023-04-14T11:56:12.767Z,61.40
2023-04-14T11:58:40.325Z,61.30
2023-04-14T12:01:08.814Z,62.30
2023-04-14T12:03:36.954Z,62.00
2023-04-14T12:06:04.615Z,61.30
2023-04-14T12:08:32.947Z,61.00
2023-04-14T12:11:13.776Z,61.20
2023-04-14T12:13:42.432Z,60.30
2023-04-14T12:16:11.831Z,59.70
2023-04-14T12:18:39.633Z,59.50
2023-04-14T12:21:09.863Z,59.90
2023-04-14T12:23:41.514Z,59.70
2023-04-14T12:26:12.335Z,60.70
2023-04-14T12:28:41.633Z,59.30
2023-04-14T12:31:10.867Z,58.50
2023-04-14T12:33:38.891Z,58.70
2023-04-14T12:36:13.467Z,57.70
2023-04-14T12:38:41.608Z,57.30
2023-04-14T12:41:09.150Z,57.80
2023-04-14T12:43:40.635Z,57.80
2023-04-14T12:46:08.074Z,57.90
2023-04-14T12:48:48.332Z,57.80
2023-04-14T12:51:19.806Z,57.90
2023-04-14T12:53:50.340Z,56.50
2023-04-14T12:56:22.276Z,56.30
2023-04-14T12:58:51.213Z,56.60
2023-04-14T13:01:20.813Z,57.50
2023-04-14T13:03:51.465Z,57.50
2023-04-14T13:06:21.409Z,57.10
2023-04-14T13:08:50.509Z,56.70
2023-04-14T13:11:19.903Z,56.50
2023-04-14T13:13:47.811Z,56.30
2023-04-14T13:16:17.860Z,56.10
2023-04-14T13:18:47.772Z,55.70
2023-04-14T13:21:15.891Z,55.80
2023-04-14T13:23:43.392Z,56.50
2023-04-14T13:26:10.917Z,56.50
2023-04-14T13:28:38.339Z,56.00
2023-04-14T13:31:05.929Z,55.70
2023-04-14T13:33:33.439Z,56.10
2023-04-14T13:36:02.648Z,56.00
2023-04-14T13:38:30.984Z,55.40
2023-04-14T13:40:58.438Z,55.40
2023-04-14T13:43:26.250Z,55.50
2023-04-14T13:45:58.016Z,55.40
2023-04-14T13:48:26.002Z,55.30
2023-04-14T13:50:54.384Z,55.10
2023-04-14T13:53:21.832Z,56.00
2023-04-14T13:55:49.269Z,55.50
2023-04-14T13:58:16.674Z,55.00
2023-04-14T14:00:44.019Z,55.20
2023-04-14T14:03:12.085Z,55.50
2023-04-14T14:05:39.560Z,55.40
2023-04-14T14:08:07.037Z,55.00
2023-04-14T14:10:34.484Z,54.40
2023-04-14T14:13:01.900Z,54.60
2023-04-14T14:15:29.249Z,54.90
2023-04-14T14:17:56.672Z,54.30
2023-04-14T14:20:24.045Z,54.20
2023-04-14T14:22:51.532Z,53.80
2023-04-14T14:25:21.247Z,53.60
2023-04-14T14:27:51.600Z,52.90
2023-04-14T14:30:19.006Z,53.20
2023-04-14T14:32:46.474Z,53.30
2023-04-14T14:35:13.911Z,54.00
2023-04-14T14:37:43.279Z,52.50
2023-04-14T14:40:11.301Z,51.90
2023-04-14T14:42:38.703Z,51.90
2023-04-14T14:45:06.838Z,52.60
2023-04-14T14:47:34.422Z,52.50
2023-04-14T14:50:06.803Z,52.40
2023-04-14T14:52:35.260Z,52.20
2023-04-14T14:55:03.517Z,52.10
2023-04-14T14:57:31.157Z,52.00
2023-04-14T14:59:58.772Z,52.30
2023-04-14T15:02:26.549Z,52.50
2023-04-14T15:04:54.548Z,52.70
2023-04-14T15:07:21.975Z,53.10
2023-04-14T15:09:50.542Z,53.40
2023-04-14T15:12:18.260Z,52.90
2023-04-14T15:14:45.847Z,53.20
2023-04-14T15:17:13.240Z,52.30
2023-04-14T15:19:41.468Z,52.30
2023-04-14T15:22:10.097Z,52.10
2023-04-14T15:24:37.459Z,52.10
2023-04-14T15:27:04.805Z,52.30
2023-04-14T15:29:32.166Z,52.20
2023-04-14T15:31:59.664Z,52.40
2023-04-14T15:34:28.582Z,52.50
2023-04-14T15:36:55.958Z,52.30
2023-04-14T15:39:23.519Z,62.90
2023-04-14T15:41:51.351Z,54.10
2023-04-14T15:44:18.974Z,55.10
2023-04-14T15:46:46.341Z,54.10
2023-04-14T15:49:13.855Z,53.60
2023-04-14T15:51:41.209Z,54.00
2023-04-14T15:54:08.592Z,54.10
2023-04-14T15:56:35.876Z,54.40
2023-04-14T15:59:03.254Z,55.00
2023-04-14T16:01:30.734Z,54.60
2023-04-14T16:03:58.408Z,54.50
2023-04-14T16:06:26.445Z,54.90
2023-04-14T16:08:53.839Z,54.90
2023-04-14T16:11:21.375Z,55.00
2023-04-14T16:13:48.908Z,55.30
2023-04-14T16:16:16.497Z,55.30
2023-04-14T16:18:43.881Z,55.60
2023-04-14T16:21:11.685Z,55.10
2023-04-14T16:23:39.052Z,54.80
2023-04-14T16:26:06.457Z,55.20
2023-04-14T16:28:34.312Z,54.90
2023-04-14T16:31:02.945Z,54.40
2023-04-14T16:33:32.477Z,54.80
2023-04-14T16:36:07.305Z,54.60
2023-04-14T16:38:34.943Z,55.80
2023-04-14T16:41:03.385Z,55.00
2023-04-14T16:43:30.742Z,55.10
2023-04-14T16:46:03.022Z,55.30
2023-04-14T16:48:31.307Z,56.30
2023-04-14T16:51:07.053Z,55.50
2023-04-14T16:53:36.043Z,56.90
2023-04-14T16:56:08.273Z,55.10
2023-04-14T16:58:36.991Z,57.10
2023-04-14T17:01:06.177Z,56.00
2023-04-14T17:03:34.210Z,56.10
2023-04-14T17:06:01.847Z,55.80
2023-04-14T17:08:29.345Z,56.00
2023-04-14T17:10:56.882Z,55.70
2023-04-14T17:13:24.291Z,55.60
2023-04-14T17:15:58.920Z,55.40
2023-04-14T17:18:33.515Z,55.30
2023-04-14T17:21:00.953Z,55.30
2023-04-14T17:23:28.583Z,55.40
2023-04-14T17:25:58.676Z,55.20
2023-04-14T17:28:27.236Z,56.70
2023-04-14T17:30:55.647Z,55.40
2023-04-14T17:33:27.038Z,55.60
2023-04-14T17:35:55.193Z,55.80
2023-04-14T17:38:23.256Z,56.10
2023-04-14T17:40:51.861Z,56.10
2023-04-14T17:43:19.209Z,56.10
2023-04-14T17:45:50.294Z,56.40
2023-04-14T17:48:18.007Z,56.10
2023-04-14T17:50:46.402Z,56.20
2023-04-14T17:53:15.519Z,57.10
2023-04-14T17:55:43.660Z,57.30
2023-04-14T17:58:11.085Z,58.50
2023-04-14T18:00:39.235Z,58.60
2023-04-14T18:03:06.657Z,59.30
2023-04-14T18:05:34.152Z,59.50
2023-04-14T18:08:01.570Z,60.00
2023-04-14T18:10:29.066Z,62.30
2023-04-14T18:12:56.597Z,60.80
2023-04-14T18:15:24.105Z,60.70
2023-04-14T18:17:52.901Z,61.40
2023-04-14T18:20:24.957Z,61.60
2023-04-14T18:22:57.687Z,61.50
2023-04-14T18:25:25.464Z,61.40
2023-04-14T18:30:22.981Z,61.90
2023-04-14T18:32:50.390Z,62.10
2023-04-14T18:35:18.377Z,62.50
2023-04-14T18:37:46.455Z,62.50
2023-04-14T18:40:13.899Z,62.40
2023-04-14T18:42:41.293Z,62.90
2023-04-14T18:45:09.657Z,63.30
2023-04-14T18:47:37.185Z,63.90
2023-04-14T18:50:05.158Z,64.20
2023-04-14T18:52:32.481Z,64.00
2023-04-14T18:54:59.779Z,64.20
2023-04-14T18:57:28.996Z,64.80
2023-04-14T18:59:56.370Z,64.90
2023-04-14T19:02:24.021Z,65.30
2023-04-14T19:04:51.705Z,65.40
2023-04-14T19:07:19.088Z,65.60
2023-04-14T19:09:46.564Z,66.00
2023-04-14T19:12:25.470Z,65.90
2023-04-14T19:14:56.038Z,66.30
2023-04-14T19:17:23.451Z,66.90
2023-04-14T19:19:50.828Z,66.70
2023-04-14T19:22:18.190Z,67.30
2023-04-14T19:24:45.565Z,67.00
2023-04-14T19:27:13.239Z,67.20
2023-04-14T19:29:41.091Z,67.50
2023-04-14T19:32:08.454Z,67.20
2023-04-14T19:34:36.006Z,67.70
2023-04-14T19:37:04.101Z,68.00
2023-04-14T19:39:31.514Z,68.00
2023-04-14T19:41:58.911Z,68.50
2023-04-14T19:44:27.174Z,68.80
2023-04-14T19:46:54.550Z,68.80
2023-04-14T19:49:22.725Z,69.00
2023-04-14T19:51:50.915Z,69.30
2023-04-14T19:54:18.459Z,69.20
2023-04-14T19:56:45.968Z,69.10
2023-04-14T19:59:13.381Z,69.60
2023-04-14T20:01:41.146Z,69.60
2023-04-14T20:04:12.572Z,69.50
2023-04-14T20:06:41.354Z,69.60
2023-04-14T20:09:09.330Z,70.70
2023-04-14T20:11:37.146Z,70.00
2023-04-14T20:14:04.837Z,70.10
2023-04-14T20:16:32.543Z,69.70
2023-04-14T20:19:00.168Z,69.70
2023-04-14T20:21:28.166Z,69.70
2023-04-14T20:23:55.942Z,69.70
2023-04-14T20:26:23.373Z,69.80
2023-04-14T20:28:51.133Z,69.70
2023-04-14T20:31:18.702Z,69.80
2023-04-14T20:33:46.171Z,69.80
2023-04-14T20:36:14.243Z,70.10
2023-04-14T20:38:41.667Z,70.10
2023-04-14T20:41:09.107Z,70.00
2023-04-14T20:43:36.512Z,70.10
2023-04-14T20:46:05.209Z,69.80
2023-04-14T20:48:32.570Z,70.20
2023-04-14T20:51:01.333Z,69.80
2023-04-14T20:53:30.095Z,69.70
2023-04-14T20:55:57.519Z,69.40
2023-04-14T20:58:25.033Z,69.70
2023-04-14T21:00:52.539Z,69.30
2023-04-14T21:03:20.024Z,69.80
2023-04-14T21:05:47.532Z,69.00
2023-04-14T21:08:15.110Z,69.20
2023-04-14T21:11:15.766Z,69.00
2023-04-14T21:15:27.919Z,68.50
2023-04-14T21:16:17.432Z,68.60
2023-04-14T21:18:44.981Z,68.50
2023-04-14T21:21:13.061Z,68.40
2023-04-14T21:23:41.072Z,68.40
2023-04-14T21:26:08.473Z,68.50
2023-04-14T21:28:35.784Z,68.50
2023-04-14T21:31:03.557Z,68.60
2023-04-14T21:33:32.325Z,68.30
2023-04-14T21:36:00.396Z,69.40
2023-04-14T21:38:27.954Z,68.40
2023-04-14T21:40:55.687Z,68.70
2023-04-14T21:43:23.098Z,68.50
2023-04-14T21:45:50.672Z,68.60
2023-04-14T21:48:19.124Z,68.90
2023-04-14T21:50:47.316Z,69.40
2023-04-14T21:53:14.679Z,69.40
2023-04-14T21:55:42.791Z,68.60
2023-04-14T21:58:10.272Z,68.50
2023-04-14T22:00:37.683Z,68.40
2023-04-14T22:03:05.211Z,68.50
2023-04-14T22:05:32.666Z,68.50
2023-04-14T22:07:59.997Z,68.50
2023-04-14T22:10:32.073Z,68.40
2023-04-14T22:13:00.721Z,69.90
2023-04-14T22:15:28.080Z,69.00
2023-04-14T22:17:55.864Z,68.40
2023-04-14T22:20:24.156Z,68.30
2023-04-14T22:22:51.483Z,67.70
2023-04-14T22:25:19.022Z,68.90
2023-04-14T22:27:46.661Z,68.20
2023-04-14T22:30:14.141Z,68.70
2023-04-14T22:32:41.810Z,68.10
2023-04-14T22:35:09.490Z,68.80
2023-04-14T22:37:37.139Z,68.80
2023-04-14T22:40:06.034Z,68.30
2023-04-14T22:42:33.320Z,68.50
2023-04-14T22:45:01.440Z,68.90
2023-04-14T22:47:28.854Z,69.00
2023-04-14T22:49:56.296Z,69.10
2023-04-14T22:52:23.916Z,76.80
2023-04-14T22:54:51.618Z,69.00
2023-04-14T22:57:19.514Z,68.90
2023-04-14T22:59:47.512Z,70.10
2023-04-14T23:02:15.043Z,69.10
2023-04-14T23:04:42.607Z,69.20
2023-04-14T23:07:10.090Z,70.60
2023-04-14T23:09:37.483Z,69.10
2023-04-14T23:12:04.887Z,69.30
2023-04-14T23:14:32.401Z,69.20
2023-04-14T23:17:00.013Z,69.30
2023-04-14T23:19:27.385Z,70.10
2023-04-14T23:21:54.689Z,69.60
2023-04-14T23:24:23.483Z,69.30
2023-04-14T23:26:51.100Z,69.10
2023-04-14T23:29:18.432Z,69.10
2023-04-14T23:31:46.094Z,69.20
2023-04-14T23:34:13.440Z,77.00
2023-04-14T23:36:41.730Z,70.20
2023-04-14T23:39:09.108Z,69.10
2023-04-14T23:41:36.637Z,68.90
2023-04-14T23:44:04.520Z,69.00
2023-04-14T23:46:32.627Z,68.90
2023-04-14T23:49:22.042Z,69.80
2023-04-14T23:51:47.815Z,69.20
2023-04-14T23:54:15.431Z,69.90
2023-04-14T23:56:43.025Z,69.00
2023-04-14T23:59:10.397Z,69.40
